createdAt,value
2018-11-05T00:00:53.945Z,99.90
2018-11-05T00:03:21.456Z,99.90
2018-11-05T00:05:50.881Z,99.90
2018-11-05T00:08:18.420Z,99.20
2018-11-05T00:10:45.955Z,99.90
2018-11-05T00:13:13.515Z,99.80
2018-11-05T00:15:43.367Z,99.90
2018-11-05T00:18:11.203Z,99.90
2018-11-05T00:20:38.734Z,99.90
2018-11-05T00:23:06.294Z,99.90
2018-11-05T00:25:34.633Z,99.50
2018-11-05T00:28:02.812Z,98.50
2018-11-05T00:30:30.360Z,99.10
2018-11-05T00:32:58.577Z,98.50
2018-11-05T00:35:26.122Z,99.00
2018-11-05T00:37:54.241Z,99.00
2018-11-05T00:40:21.775Z,98.50
2018-11-05T00:42:50.065Z,98.40
2018-11-05T00:45:17.575Z,99.10
2018-11-05T00:47:45.483Z,97.90
2018-11-05T00:50:15.124Z,98.80
2018-11-05T00:52:42.730Z,98.60
2018-11-05T00:55:11.695Z,98.90
2018-11-05T00:57:40.855Z,99.00
2018-11-05T01:00:17.070Z,99.40
2018-11-05T01:02:45.329Z,99.70
2018-11-05T01:05:16.735Z,99.80
2018-11-05T01:07:44.975Z,99.90
2018-11-05T01:10:13.455Z,99.90
2018-11-05T01:12:41.272Z,99.90
2018-11-05T01:15:12.327Z,99.90
2018-11-05T01:17:40.608Z,99.90
2018-11-05T01:20:09.647Z,99.90
2018-11-05T01:22:37.856Z,99.90
2018-11-05T01:25:06.271Z,99.90
2018-11-05T01:27:35.024Z,99.90
2018-11-05T01:30:02.877Z,99.90
2018-11-05T01:32:31.362Z,99.90
2018-11-05T01:34:58.906Z,99.90
2018-11-05T01:37:28.188Z,99.90
2018-11-05T01:39:56.180Z,99.90
2018-11-05T01:42:24.233Z,99.90
2018-11-05T01:44:51.743Z,99.90
2018-11-05T01:47:19.261Z,99.90
2018-11-05T01:49:47.319Z,99.90
2018-11-05T01:52:15.495Z,99.90
2018-11-05T01:54:43.880Z,99.90
2018-11-05T01:57:11.927Z,99.90
2018-11-05T01:59:40.435Z,99.90
2018-11-05T02:02:08.016Z,99.90
2018-11-05T02:04:35.572Z,99.90
2018-11-05T02:07:04.376Z,99.90
2018-11-05T02:09:31.935Z,99.90
2018-11-05T02:12:00.640Z,99.90
2018-11-05T02:14:28.201Z,99.90
2018-11-05T02:16:57.312Z,99.90
2018-11-05T02:19:25.337Z,99.90
2018-11-05T02:21:52.865Z,99.90
2018-11-05T02:24:20.839Z,99.90
2018-11-05T02:26:49.607Z,99.90
2018-11-05T02:29:18.625Z,99.90
2018-11-05T02:31:46.156Z,99.90
2018-11-05T02:34:14.185Z,99.90
2018-11-05T02:36:41.756Z,99.90
2018-11-05T02:39:10.143Z,99.90
2018-11-05T02:41:38.405Z,99.90
2018-11-05T02:44:05.943Z,99.90
2018-11-05T02:46:34.826Z,99.90
2018-11-05T02:49:03.599Z,99.90
2018-11-05T02:51:31.241Z,99.90
2018-11-05T02:53:59.451Z,99.90
2018-11-05T02:56:28.066Z,99.90
2018-11-05T02:58:55.588Z,99.90
2018-11-05T03:01:23.668Z,99.90
2018-11-05T03:03:51.240Z,99.90
2018-11-05T03:06:19.694Z,99.90
2018-11-05T03:08:47.249Z,99.90
2018-11-05T03:11:14.784Z,99.90
2018-11-05T03:13:42.545Z,99.90
2018-11-05T03:16:10.624Z,99.90
2018-11-05T03:18:38.183Z,99.90
2018-11-05T03:21:05.724Z,99.90
2018-11-05T03:23:33.828Z,99.90
2018-11-05T03:26:01.720Z,99.90
2018-11-05T03:28:29.898Z,99.90
2018-11-05T03:30:58.163Z,99.90
2018-11-05T03:33:25.727Z,99.90
2018-11-05T03:35:53.392Z,99.90
2018-11-05T03:38:21.448Z,99.90
2018-11-05T03:40:49.076Z,99.90
2018-11-05T03:43:17.072Z,99.90
2018-11-05T03:45:44.616Z,99.90
2018-11-05T03:48:12.824Z,99.90
2018-11-05T03:50:40.336Z,99.90
2018-11-05T03:53:07.883Z,99.90
2018-11-05T03:55:36.215Z,99.90
2018-11-05T03:58:04.547Z,99.90
2018-11-05T04:00:32.074Z,99.90
2018-11-05T04:02:59.607Z,99.90
2018-11-05T04:05:27.938Z,99.90
2018-11-05T04:07:55.456Z,99.90
2018-11-05T04:10:23.080Z,99.90
2018-11-05T04:12:50.712Z,99.90
2018-11-05T04:15:18.350Z,99.90
2018-11-05T04:17:46.796Z,99.90
2018-11-05T04:20:14.819Z,99.90
2018-11-05T04:22:43.395Z,99.90
2018-11-05T04:26:40.843Z,99.90
2018-11-05T04:29:09.146Z,99.90
2018-11-05T04:31:37.787Z,99.90
2018-11-05T04:34:05.455Z,99.90
2018-11-05T04:36:33.792Z,99.90
2018-11-05T04:39:01.357Z,99.90
2018-11-05T04:41:29.427Z,99.90
2018-11-05T04:43:57.703Z,99.90
2018-11-05T04:46:25.892Z,99.90
2018-11-05T04:48:53.792Z,99.90
2018-11-05T04:51:21.343Z,99.90
2018-11-05T04:53:48.937Z,99.90
2018-11-05T04:56:17.109Z,99.90
2018-11-05T04:58:45.035Z,99.90
2018-11-05T05:01:12.554Z,99.90
2018-11-05T05:03:40.224Z,99.90
2018-11-05T05:06:08.709Z,99.90
2018-11-05T05:08:36.234Z,99.90
2018-11-05T05:11:03.811Z,99.90
2018-11-05T05:13:32.017Z,99.90
2018-11-05T05:15:59.577Z,99.90
2018-11-05T05:18:27.692Z,99.90
2018-11-05T05:20:55.754Z,99.90
2018-11-05T05:23:23.429Z,99.90
2018-11-05T05:25:52.237Z,99.90
2018-11-05T05:28:20.423Z,99.90
2018-11-05T05:30:47.963Z,99.90
2018-11-05T05:33:16.090Z,99.90
2018-11-05T05:35:43.996Z,99.90
2018-11-05T05:38:12.009Z,99.90
2018-11-05T05:40:41.250Z,99.90
2018-11-05T05:43:10.504Z,99.90
2018-11-05T05:45:38.690Z,99.90
2018-11-05T05:48:06.711Z,99.90
2018-11-05T05:50:34.311Z,99.90
2018-11-05T05:53:01.948Z,99.90
2018-11-05T05:55:30.087Z,99.90
2018-11-05T05:57:58.354Z,99.90
2018-11-05T06:00:26.005Z,99.90
2018-11-05T06:02:53.593Z,99.90
2018-11-05T06:05:22.784Z,99.90
2018-11-05T06:07:50.346Z,99.90
2018-11-05T06:10:17.879Z,99.90
2018-11-05T06:12:45.576Z,99.90
2018-11-05T06:15:14.534Z,99.90
2018-11-05T06:17:42.836Z,99.90
2018-11-05T06:20:13.137Z,99.90
2018-11-05T06:22:41.013Z,99.90
2018-11-05T06:25:09.305Z,99.90
2018-11-05T06:27:37.823Z,99.90
2018-11-05T06:30:09.338Z,99.90
2018-11-05T06:32:40.089Z,99.90
2018-11-05T06:35:08.563Z,99.90
2018-11-05T06:37:37.312Z,99.90
2018-11-05T06:40:06.909Z,99.90
2018-11-05T06:42:34.525Z,99.90
2018-11-05T06:45:02.252Z,99.90
2018-11-05T06:47:29.794Z,99.90
2018-11-05T06:49:59.202Z,99.90
2018-11-05T06:52:26.758Z,99.90
2018-11-05T06:54:55.059Z,99.90
2018-11-05T06:57:23.348Z,99.90
2018-11-05T06:59:51.255Z,99.90
2018-11-05T07:02:18.789Z,99.90
2018-11-05T07:04:46.332Z,99.90
2018-11-05T07:07:14.799Z,99.90
2018-11-05T07:09:42.425Z,99.90
2018-11-05T07:12:09.888Z,99.90
2018-11-05T07:14:37.431Z,99.90
2018-11-05T07:17:05.897Z,99.90
2018-11-05T07:19:33.458Z,99.90
2018-11-05T07:22:02.568Z,99.90
2018-11-05T07:24:30.946Z,99.90
2018-11-05T07:26:58.458Z,99.10
2018-11-05T07:29:25.999Z,99.70
2018-11-05T07:31:54.040Z,98.80
2018-11-05T07:34:22.745Z,99.00
2018-11-05T07:36:51.018Z,97.10
2018-11-05T07:39:19.915Z,98.50
2018-11-05T07:41:48.201Z,98.20
2018-11-05T07:44:15.753Z,96.60
2018-11-05T07:46:43.288Z,97.30
2018-11-05T07:49:11.710Z,96.20
2018-11-05T07:51:39.293Z,95.40
2018-11-05T07:54:08.711Z,94.70
2018-11-05T07:56:37.069Z,93.60
2018-11-05T07:59:04.671Z,94.40
2018-11-05T08:01:32.201Z,93.90
2018-11-05T08:03:59.786Z,93.60
2018-11-05T08:06:28.120Z,92.10
2018-11-05T08:08:56.339Z,91.60
2018-11-05T08:11:23.919Z,89.90
2018-11-05T08:13:51.621Z,84.90
2018-11-05T08:16:21.263Z,85.70
2018-11-05T08:18:49.441Z,84.90
2018-11-05T08:21:17.109Z,83.90
2018-11-05T08:23:45.663Z,83.90
2018-11-05T08:26:14.239Z,83.20
2018-11-05T08:28:42.024Z,81.50
2018-11-05T08:31:10.739Z,82.30
2018-11-05T08:33:38.657Z,82.40
2018-11-05T08:36:06.936Z,80.60
2018-11-05T08:38:34.477Z,78.30
2018-11-05T08:41:02.538Z,75.10
2018-11-05T08:43:30.415Z,77.40
2018-11-05T08:45:58.127Z,77.00
2018-11-05T08:48:26.434Z,75.10
2018-11-05T08:50:54.159Z,74.80
2018-11-05T08:53:21.695Z,75.00
2018-11-05T08:55:49.964Z,74.90
2018-11-05T08:58:18.331Z,72.20
2018-11-05T09:00:52.269Z,73.50
2018-11-05T09:03:20.151Z,72.80
2018-11-05T09:05:48.345Z,73.20
2018-11-05T09:08:15.859Z,74.00
2018-11-05T09:10:44.911Z,72.30
2018-11-05T09:13:12.138Z,73.50
2018-11-05T09:15:39.691Z,71.20
2018-11-05T09:18:07.855Z,70.80
2018-11-05T09:20:36.114Z,70.90
2018-11-05T09:23:04.352Z,71.20
2018-11-05T09:25:32.413Z,69.90
2018-11-05T09:27:59.998Z,70.10
2018-11-05T09:30:28.151Z,70.00
2018-11-05T09:32:56.131Z,67.90
2018-11-05T09:35:23.753Z,99.90
2018-11-05T09:37:52.120Z,99.90
2018-11-05T09:40:21.895Z,99.90
2018-11-05T09:42:51.015Z,99.90
2018-11-05T09:45:23.836Z,99.90
2018-11-05T09:47:52.207Z,99.90
2018-11-05T09:50:20.145Z,99.90
2018-11-05T09:52:47.711Z,66.30
2018-11-05T09:55:16.155Z,64.70
2018-11-05T09:57:44.964Z,65.50
2018-11-05T10:00:14.639Z,64.90
2018-11-05T10:02:47.943Z,66.00
2018-11-05T10:05:16.769Z,65.00
2018-11-05T10:07:44.684Z,65.70
2018-11-05T10:10:13.203Z,66.10
2018-11-05T10:12:41.410Z,65.50
2018-11-05T10:15:11.351Z,64.20
2018-11-05T10:17:40.698Z,65.40
2018-11-05T10:20:11.037Z,64.00
2018-11-05T10:22:38.674Z,63.80
2018-11-05T10:25:08.748Z,64.80
2018-11-05T10:27:37.263Z,61.80
2018-11-05T10:30:08.787Z,60.90
2018-11-05T10:32:36.448Z,60.60
2018-11-05T10:35:04.754Z,61.30
2018-11-05T10:37:32.425Z,60.30
2018-11-05T10:40:01.039Z,61.60
2018-11-05T10:42:28.585Z,61.20
2018-11-05T10:44:56.297Z,56.60
2018-11-05T10:47:24.703Z,60.50
2018-11-05T10:49:53.115Z,58.80
2018-11-05T10:52:21.907Z,59.50
2018-11-05T10:54:51.001Z,58.20
2018-11-05T10:57:19.036Z,57.50
2018-11-05T10:59:47.303Z,57.80
2018-11-05T11:02:20.471Z,58.60
2018-11-05T11:04:48.689Z,58.30
2018-11-05T11:07:17.003Z,58.50
2018-11-05T11:09:44.608Z,59.30
2018-11-05T11:12:12.727Z,59.10
2018-11-05T11:14:40.330Z,58.10
2018-11-05T11:17:09.088Z,57.50
2018-11-05T11:19:36.633Z,58.10
2018-11-05T11:22:04.262Z,57.70
2018-11-05T11:24:32.130Z,57.80
2018-11-05T11:26:59.674Z,56.80
2018-11-05T11:29:28.151Z,52.70
2018-11-05T11:31:55.624Z,55.20
2018-11-05T11:34:23.169Z,54.80
2018-11-05T11:36:51.409Z,54.50
2018-11-05T11:39:21.476Z,54.10
2018-11-05T11:41:49.859Z,53.10
2018-11-05T11:44:18.436Z,52.30
2018-11-05T11:46:46.183Z,51.90
2018-11-05T11:49:14.258Z,52.80
2018-11-05T11:51:41.803Z,52.90
2018-11-05T11:54:11.691Z,52.60
2018-11-05T11:56:39.591Z,52.40
2018-11-05T11:59:08.410Z,52.50
2018-11-05T12:01:41.722Z,53.00
2018-11-05T12:04:09.382Z,52.10
2018-11-05T12:06:38.249Z,53.30
2018-11-05T12:09:08.649Z,49.90
2018-11-05T12:11:37.131Z,48.90
2018-11-05T12:14:05.916Z,48.00
2018-11-05T12:16:34.369Z,48.60
2018-11-05T12:19:02.020Z,48.30
2018-11-05T12:21:30.957Z,47.90
2018-11-05T12:23:58.508Z,47.10
2018-11-05T12:26:26.524Z,46.30
2018-11-05T12:28:54.106Z,47.70
2018-11-05T12:31:21.801Z,45.30
2018-11-05T12:33:50.723Z,45.20
2018-11-05T12:36:19.379Z,46.90
2018-11-05T12:38:47.596Z,45.30
2018-11-05T12:41:15.964Z,46.40
2018-11-05T12:43:43.975Z,45.90
2018-11-05T12:46:11.975Z,44.70
2018-11-05T12:48:40.339Z,45.80
2018-11-05T12:51:08.844Z,44.60
2018-11-05T12:53:36.865Z,44.90
2018-11-05T12:56:06.064Z,44.30
2018-11-05T12:58:34.855Z,44.50
2018-11-05T13:01:02.423Z,44.60
2018-11-05T13:03:30.055Z,43.50
2018-11-05T13:05:58.983Z,44.50
2018-11-05T13:08:27.388Z,43.30
2018-11-05T13:10:54.939Z,44.00
2018-11-05T13:13:22.515Z,43.70
2018-11-05T13:15:50.089Z,42.80
2018-11-05T13:18:18.236Z,43.30
2018-11-05T13:20:47.307Z,43.60
2018-11-05T13:23:20.632Z,44.10
2018-11-05T13:25:48.908Z,41.80
2018-11-05T13:28:16.505Z,41.00
2018-11-05T13:30:44.442Z,42.50
2018-11-05T13:33:11.991Z,43.10
2018-11-05T13:35:40.506Z,43.60
2018-11-05T13:38:08.656Z,42.50
2018-11-05T13:40:36.199Z,43.00
2018-11-05T13:43:04.040Z,42.90
2018-11-05T13:45:31.741Z,42.80
2018-11-05T13:48:00.459Z,43.70
2018-11-05T13:50:28.414Z,43.90
2018-11-05T13:52:55.572Z,43.70
2018-11-05T13:55:23.761Z,43.80
2018-11-05T13:57:52.612Z,44.40
2018-11-05T14:00:20.688Z,44.80
2018-11-05T14:02:48.775Z,45.10
2018-11-05T14:05:16.906Z,44.80
2018-11-05T14:07:44.716Z,45.10
2018-11-05T14:10:14.418Z,45.20
2018-11-05T14:12:43.074Z,44.80
2018-11-05T14:15:11.195Z,45.00
2018-11-05T14:17:40.634Z,45.70
2018-11-05T14:20:10.060Z,45.80
2018-11-05T14:22:38.082Z,46.90
2018-11-05T14:25:07.918Z,46.40
2018-11-05T14:27:36.104Z,46.40
2018-11-05T14:30:05.205Z,46.90
2018-11-05T14:32:32.689Z,46.60
2018-11-05T14:35:00.483Z,46.60
2018-11-05T14:37:28.646Z,47.10
2018-11-05T14:39:56.244Z,46.90
2018-11-05T14:42:24.524Z,47.00
2018-11-05T14:44:52.712Z,47.40
2018-11-05T14:47:20.673Z,47.20
2018-11-05T14:49:49.162Z,46.80
2018-11-05T14:52:16.731Z,46.60
2018-11-05T14:54:45.190Z,47.00
2018-11-05T14:57:14.059Z,47.20
2018-11-05T14:59:41.563Z,47.80
2018-11-05T15:02:16.579Z,47.90
2018-11-05T15:04:44.890Z,48.20
2018-11-05T15:07:13.440Z,48.70
2018-11-05T15:09:41.153Z,48.70
2018-11-05T15:12:09.793Z,49.10
2018-11-05T15:14:37.859Z,49.30
2018-11-05T15:17:06.970Z,49.90
2018-11-05T15:19:35.473Z,51.30
2018-11-05T15:22:02.759Z,50.90
2018-11-05T15:24:30.890Z,51.00
2018-11-05T15:26:58.591Z,52.00
2018-11-05T15:29:26.939Z,52.30
2018-11-05T15:31:55.124Z,52.30
2018-11-05T15:34:22.764Z,52.10
2018-11-05T15:36:50.314Z,53.00
2018-11-05T15:39:17.896Z,53.20
2018-11-05T15:41:45.839Z,53.50
2018-11-05T15:44:14.237Z,53.80
2018-11-05T15:46:42.130Z,53.90
2018-11-05T15:49:10.900Z,54.50
2018-11-05T15:51:39.232Z,54.60
2018-11-05T15:54:08.616Z,54.20
2018-11-05T15:56:36.213Z,55.50
2018-11-05T15:59:04.357Z,55.30
2018-11-05T16:01:33.164Z,55.50
2018-11-05T16:04:02.933Z,55.90
2018-11-05T16:06:32.103Z,55.60
2018-11-05T16:08:59.800Z,55.70
2018-11-05T16:11:28.439Z,56.00
2018-11-05T16:13:57.222Z,56.10
2018-11-05T16:16:25.167Z,56.00
2018-11-05T16:18:53.794Z,56.10
2018-11-05T16:21:21.319Z,56.10
2018-11-05T16:23:48.908Z,56.10
2018-11-05T16:26:17.326Z,56.20
2018-11-05T16:28:44.889Z,56.50
2018-11-05T16:31:12.432Z,57.10
2018-11-05T16:33:40.590Z,57.10
2018-11-05T16:36:08.512Z,57.40
2018-11-05T16:38:37.208Z,57.50
2018-11-05T16:41:05.944Z,57.70
2018-11-05T16:43:33.467Z,58.60
2018-11-05T16:46:01.060Z,58.50
2018-11-05T16:48:29.229Z,58.30
2018-11-05T16:50:56.792Z,58.70
2018-11-05T16:53:24.322Z,58.50
2018-11-05T16:55:53.074Z,58.60
2018-11-05T16:58:21.570Z,58.60
2018-11-05T17:00:49.196Z,59.70
2018-11-05T17:03:16.890Z,58.80
2018-11-05T17:05:44.991Z,58.90
2018-11-05T17:08:12.515Z,58.80
2018-11-05T17:10:40.917Z,59.30
2018-11-05T17:13:09.781Z,58.80
2018-11-05T17:15:37.712Z,59.40
2018-11-05T17:18:05.801Z,58.90
2018-11-05T17:20:33.345Z,58.90
2018-11-05T17:23:01.331Z,59.00
2018-11-05T17:25:31.003Z,59.10
2018-11-05T17:27:58.639Z,59.10
2018-11-05T17:30:26.233Z,58.80
2018-11-05T17:32:53.783Z,59.50
2018-11-05T17:35:21.305Z,59.60
2018-11-05T17:37:49.407Z,59.70
2018-11-05T17:40:18.912Z,60.10
2018-11-05T17:42:47.164Z,60.30
2018-11-05T17:45:16.186Z,60.30
2018-11-05T17:47:44.172Z,60.70
2018-11-05T17:50:14.533Z,60.80
2018-11-05T17:52:43.438Z,60.70
2018-11-05T17:55:13.098Z,60.30
2018-11-05T17:57:43.271Z,61.20
2018-11-05T18:00:14.066Z,61.10
2018-11-05T18:02:42.199Z,61.10
2018-11-05T18:05:10.399Z,61.10
2018-11-05T18:07:39.079Z,61.00
2018-11-05T18:10:07.392Z,60.80
2018-11-05T18:12:35.619Z,60.90
2018-11-05T18:15:05.531Z,60.70
2018-11-05T18:17:33.618Z,60.90
2018-11-05T18:20:01.195Z,60.90
2018-11-05T18:22:28.727Z,60.90
2018-11-05T18:24:57.131Z,61.00
2018-11-05T18:27:24.663Z,61.20
2018-11-05T18:29:52.202Z,61.10
2018-11-05T18:32:20.736Z,61.10
2018-11-05T18:34:50.409Z,61.50
2018-11-05T18:37:19.107Z,61.70
2018-11-05T18:39:48.345Z,61.60
2018-11-05T18:42:16.528Z,61.60
2018-11-05T18:44:44.729Z,61.60
2018-11-05T18:47:12.271Z,61.30
2018-11-05T18:49:40.975Z,61.60
2018-11-05T18:52:09.953Z,61.40
2018-11-05T18:54:38.232Z,61.60
2018-11-05T18:57:06.433Z,62.00
2018-11-05T18:59:34.560Z,61.90
2018-11-05T19:02:02.596Z,61.90
2018-11-05T19:04:30.978Z,62.00
2018-11-05T19:06:59.330Z,62.00
2018-11-05T19:09:27.426Z,62.10
2018-11-05T19:11:55.031Z,62.40
2018-11-05T19:14:22.560Z,62.20
2018-11-05T19:16:50.732Z,62.20
2018-11-05T19:19:18.268Z,62.30
2018-11-05T19:21:46.451Z,62.20
2018-11-05T19:24:15.488Z,62.30
2018-11-05T19:26:42.916Z,62.30
2018-11-05T19:29:10.529Z,62.30
2018-11-05T19:31:38.975Z,62.20
2018-11-05T19:34:07.098Z,62.00
2018-11-05T19:36:36.004Z,61.60
2018-11-05T19:39:08.081Z,61.60
2018-11-05T19:41:36.303Z,61.00
2018-11-05T19:44:05.112Z,61.20
2018-11-05T19:46:33.315Z,61.10
2018-11-05T19:49:01.642Z,61.00
2018-11-05T19:51:29.823Z,61.10
2018-11-05T19:53:57.490Z,61.00
2018-11-05T19:56:26.658Z,60.90
2018-11-05T19:58:54.775Z,60.80
2018-11-05T20:01:22.360Z,60.70
2018-11-05T20:03:50.944Z,60.60
2018-11-05T20:06:19.425Z,60.50
2018-11-05T20:08:46.947Z,60.10
2018-11-05T20:11:14.474Z,59.90
2018-11-05T20:13:42.018Z,59.70
2018-11-05T20:16:10.184Z,59.70
2018-11-05T20:18:38.261Z,59.90
2018-11-05T20:21:05.774Z,60.10
2018-11-05T20:23:33.965Z,59.90
2018-11-05T20:26:02.164Z,59.10
2018-11-05T20:28:29.871Z,59.10
2018-11-05T20:30:57.788Z,58.80
2018-11-05T20:33:25.420Z,59.40
2018-11-05T20:35:52.956Z,59.70
2018-11-05T20:38:21.125Z,59.70
2018-11-05T20:40:48.795Z,60.10
2018-11-05T20:43:16.968Z,60.30
2018-11-05T20:45:45.291Z,60.50
2018-11-05T20:48:13.620Z,60.50
2018-11-05T20:50:42.116Z,60.20
2018-11-05T20:53:09.979Z,60.30
2018-11-05T20:55:38.280Z,60.40
2018-11-05T20:58:07.266Z,61.10
2018-11-05T21:00:35.639Z,60.10
2018-11-05T21:03:04.335Z,60.00
2018-11-05T21:05:32.725Z,59.60
2018-11-05T21:08:00.261Z,59.30
2018-11-05T21:10:28.423Z,59.30
2018-11-05T21:12:56.081Z,59.20
2018-11-05T21:15:25.042Z,58.90
2018-11-05T21:17:53.452Z,58.60
2018-11-05T21:20:22.920Z,58.80
2018-11-05T21:22:50.912Z,58.60
2018-11-05T21:25:18.686Z,58.30
2018-11-05T21:27:46.209Z,59.20
2018-11-05T21:30:16.097Z,58.20
2018-11-05T21:32:43.819Z,57.80
2018-11-05T21:35:13.370Z,57.30
2018-11-05T21:37:41.336Z,57.20
2018-11-05T21:40:11.309Z,57.20
2018-11-05T21:42:40.642Z,56.90
2018-11-05T21:45:10.952Z,56.10
2018-11-05T21:47:39.230Z,56.50
2018-11-05T21:50:11.182Z,56.30
2018-11-05T21:52:39.939Z,56.00
2018-11-05T21:55:09.040Z,56.40
2018-11-05T21:57:39.679Z,56.30
2018-11-05T22:00:11.692Z,55.80
2018-11-05T22:02:47.955Z,55.60
2018-11-05T22:05:16.562Z,55.40
2018-11-05T22:07:46.319Z,56.00
2018-11-05T22:10:14.171Z,56.30
2018-11-05T22:12:43.267Z,56.60
2018-11-05T22:15:11.473Z,56.40
2018-11-05T22:17:39.885Z,55.20
2018-11-05T22:20:08.999Z,55.40
2018-11-05T22:22:36.958Z,55.20
2018-11-05T22:25:05.765Z,55.10
2018-11-05T22:27:33.919Z,55.20
2018-11-05T22:30:03.051Z,55.30
2018-11-05T22:32:30.589Z,55.10
2018-11-05T22:34:59.207Z,54.80
2018-11-05T22:37:26.906Z,55.10
2018-11-05T22:39:54.401Z,55.20
2018-11-05T22:42:22.109Z,55.30
2018-11-05T22:44:50.546Z,54.90
2018-11-05T22:47:18.168Z,55.60
2018-11-05T22:49:46.107Z,55.90
2018-11-05T22:52:16.802Z,55.90
2018-11-05T22:54:45.103Z,56.20
2018-11-05T22:57:13.307Z,56.10
2018-11-05T22:59:43.522Z,56.10
2018-11-05T23:02:11.145Z,56.90
2018-11-05T23:04:39.983Z,55.70
2018-11-05T23:07:08.085Z,55.90
2018-11-05T23:09:35.704Z,55.70
2018-11-05T23:12:03.343Z,56.00
2018-11-05T23:14:31.594Z,56.90
2018-11-05T23:16:59.944Z,55.80
2018-11-05T23:19:27.456Z,55.90
2018-11-05T23:21:54.960Z,56.10
2018-11-05T23:24:24.499Z,56.10
2018-11-05T23:26:52.039Z,56.60
2018-11-05T23:29:19.598Z,56.10
2018-11-05T23:31:47.264Z,56.50
2018-11-05T23:34:14.788Z,56.60
2018-11-05T23:36:42.378Z,56.60
2018-11-05T23:39:10.368Z,56.80
2018-11-05T23:41:38.863Z,56.80
2018-11-05T23:44:06.415Z,56.70
2018-11-05T23:46:34.656Z,56.70
2018-11-05T23:49:03.035Z,57.00
2018-11-05T23:51:31.262Z,57.20
2018-11-05T23:53:59.561Z,57.00
2018-11-05T23:56:28.245Z,57.10
2018-11-05T23:58:56.732Z,57.10
